createdAt,value
2019-04-28T00:02:11.812Z,51.00
2019-04-28T00:04:44.324Z,51.00
2019-04-28T00:07:16.718Z,50.80
2019-04-28T00:09:51.022Z,50.70
2019-04-28T00:12:23.581Z,50.80
2019-04-28T00:14:56.003Z,51.00
2019-04-28T00:17:28.470Z,51.00
2019-04-28T00:20:02.541Z,50.90
2019-04-28T00:22:51.509Z,50.90
2019-04-28T00:25:27.421Z,50.80
2019-04-28T00:28:01.542Z,50.90
2019-04-28T00:30:34.291Z,50.80
2019-04-28T00:33:06.690Z,50.70
2019-04-28T00:35:39.106Z,50.80
2019-04-28T00:38:13.080Z,50.60
2019-04-28T00:40:45.654Z,50.60
2019-04-28T00:43:18.063Z,50.60
2019-04-28T00:45:51.278Z,51.20
2019-04-28T00:48:23.879Z,50.60
2019-04-28T00:50:56.370Z,50.50
2019-04-28T00:53:31.008Z,50.40
2019-04-28T00:56:02.916Z,50.20
2019-04-28T00:58:35.301Z,50.30
2019-04-28T01:01:11.380Z,50.20
2019-04-28T01:03:44.232Z,50.10
2019-04-28T01:06:16.646Z,50.30
2019-04-28T01:08:49.215Z,50.20
2019-04-28T01:11:21.832Z,50.00
2019-04-28T01:13:54.206Z,50.00
2019-04-28T01:16:33.562Z,50.00
2019-04-28T01:19:13.898Z,50.30
2019-04-28T01:22:05.144Z,50.20
2019-04-28T01:24:39.754Z,50.00
2019-04-28T01:27:50.482Z,50.00
2019-04-28T01:30:57.258Z,50.00
2019-04-28T01:33:54.373Z,50.10
2019-04-28T01:36:26.797Z,50.20
2019-04-28T01:38:59.981Z,50.20
2019-04-28T01:41:32.494Z,50.00
2019-04-28T01:44:04.930Z,50.10
2019-04-28T01:46:37.368Z,50.20
2019-04-28T01:49:09.815Z,50.20
2019-04-28T01:51:42.227Z,50.30
2019-04-28T01:54:14.622Z,50.30
2019-04-28T01:56:47.055Z,50.10
2019-04-28T01:59:20.102Z,50.10
2019-04-28T02:01:52.561Z,49.90
2019-04-28T02:04:25.038Z,50.00
2019-04-28T02:06:57.457Z,49.90
2019-04-28T02:09:29.954Z,49.60
2019-04-28T02:12:02.391Z,49.50
2019-04-28T02:14:34.771Z,49.40
2019-04-28T02:17:07.195Z,49.60
2019-04-28T02:19:40.923Z,49.40
2019-04-28T02:22:22.696Z,49.40
2019-04-28T02:24:55.072Z,49.60
2019-04-28T02:27:27.512Z,49.70
2019-04-28T02:30:00.343Z,49.70
2019-04-28T02:32:33.093Z,49.80
2019-04-28T02:35:06.578Z,50.40
2019-04-28T02:37:40.593Z,49.70
2019-04-28T02:40:13.088Z,49.60
2019-04-28T02:42:45.441Z,49.50
2019-04-28T02:45:21.727Z,49.50
2019-04-28T02:47:57.659Z,49.50
2019-04-28T02:50:41.145Z,49.70
2019-04-28T02:53:27.641Z,49.50
2019-04-28T02:56:00.855Z,49.60
2019-04-28T02:58:33.454Z,49.70
2019-04-28T03:01:18.461Z,49.60
2019-04-28T03:03:41.081Z,50.10
2019-04-28T03:06:13.554Z,49.50
2019-04-28T03:08:45.952Z,49.50
2019-04-28T03:11:20.375Z,49.30
2019-04-28T03:13:52.480Z,49.30
2019-04-28T03:16:24.900Z,49.20
2019-04-28T03:18:57.297Z,49.10
2019-04-28T03:21:31.251Z,49.10
2019-04-28T03:24:03.910Z,49.00
2019-04-28T03:26:45.990Z,49.00
2019-04-28T03:29:26.355Z,49.10
2019-04-28T03:32:32.857Z,49.30
2019-04-28T03:34:53.859Z,49.10
2019-04-28T03:37:24.796Z,49.00
2019-04-28T03:39:57.192Z,48.90
2019-04-28T03:42:31.402Z,48.60
2019-04-28T03:45:05.673Z,48.80
2019-04-28T03:47:40.486Z,48.70
2019-04-28T03:50:12.295Z,48.80
2019-04-28T03:52:44.724Z,48.60
2019-04-28T03:55:17.115Z,48.60
2019-04-28T03:57:51.225Z,48.60
2019-04-28T04:00:23.630Z,48.50
2019-04-28T04:02:56.048Z,48.70
2019-04-28T04:05:30.618Z,48.80
2019-04-28T04:08:02.574Z,48.80
2019-04-28T04:10:41.027Z,48.90
2019-04-28T04:13:20.069Z,48.70
2019-04-28T04:16:11.305Z,48.90
2019-04-28T04:18:46.836Z,49.00
2019-04-28T04:21:21.373Z,48.90
2019-04-28T04:23:53.372Z,48.80
2019-04-28T04:26:25.756Z,48.90
2019-04-28T04:29:00.704Z,48.90
2019-04-28T04:31:32.296Z,49.00
2019-04-28T04:34:04.712Z,49.10
2019-04-28T04:36:41.417Z,49.10
2019-04-28T04:39:12.315Z,49.40
2019-04-28T04:41:44.777Z,49.60
2019-04-28T04:44:17.237Z,49.80
2019-04-28T04:46:50.852Z,49.90
2019-04-28T04:49:23.561Z,49.70
2019-04-28T04:51:56.037Z,49.50
2019-04-28T04:54:32.025Z,49.70
2019-04-28T04:57:02.556Z,49.80
2019-04-28T04:59:36.295Z,50.00
2019-04-28T05:02:32.991Z,50.10
2019-04-28T05:05:18.141Z,50.20
2019-04-28T05:07:50.796Z,50.20
2019-04-28T05:10:23.280Z,50.20
2019-04-28T05:12:55.715Z,49.90
2019-04-28T05:15:28.108Z,50.00
2019-04-28T05:18:00.465Z,50.00
2019-04-28T05:20:32.862Z,50.10
2019-04-28T05:23:30.287Z,50.20
2019-04-28T05:26:07.983Z,50.10
2019-04-28T05:28:43.311Z,50.30
2019-04-28T05:31:19.525Z,50.40
2019-04-28T05:33:45.361Z,50.90
2019-04-28T05:36:17.833Z,50.40
2019-04-28T05:38:50.355Z,50.30
2019-04-28T05:41:22.747Z,50.30
2019-04-28T05:43:55.173Z,50.30
2019-04-28T05:46:27.510Z,50.40
2019-04-28T05:49:21.865Z,50.50
2019-04-28T05:51:56.006Z,50.20
2019-04-28T05:54:44.789Z,50.50
2019-04-28T05:57:30.558Z,50.60
2019-04-28T06:00:41.802Z,50.60
2019-04-28T06:03:16.174Z,50.60
2019-04-28T06:05:49.712Z,50.30
2019-04-28T06:08:30.338Z,50.60
2019-04-28T06:11:22.876Z,50.30
2019-04-28T06:13:55.456Z,50.70
2019-04-28T06:16:30.239Z,50.70
2019-04-28T06:19:02.079Z,50.60
2019-04-28T06:21:34.489Z,50.50
2019-04-28T06:24:06.936Z,50.40
2019-04-28T06:26:39.349Z,50.30
2019-04-28T06:29:11.829Z,50.20
2019-04-28T06:31:44.274Z,50.50
2019-04-28T06:34:16.745Z,50.50
2019-04-28T06:36:49.178Z,50.60
2019-04-28T06:39:21.706Z,50.00
2019-04-28T06:41:54.105Z,50.00
2019-04-28T06:44:26.595Z,50.10
2019-04-28T06:46:58.994Z,49.80
2019-04-28T06:49:31.414Z,49.70
2019-04-28T06:52:03.873Z,49.80
2019-04-28T06:54:36.290Z,49.90
2019-04-28T06:57:08.695Z,50.50
2019-04-28T06:59:41.103Z,49.70
2019-04-28T07:02:13.524Z,49.70
2019-04-28T07:04:45.942Z,49.50
2019-04-28T07:07:18.276Z,49.40
2019-04-28T07:09:50.697Z,49.30
2019-04-28T07:12:23.117Z,49.60
2019-04-28T07:14:55.544Z,49.80
2019-04-28T07:17:27.938Z,49.90
2019-04-28T07:20:19.282Z,49.90
2019-04-28T07:22:51.760Z,49.10
2019-04-28T07:25:24.255Z,49.60
2019-04-28T07:27:59.292Z,49.90
2019-04-28T07:30:31.739Z,49.30
2019-04-28T07:33:04.136Z,49.40
2019-04-28T07:35:36.591Z,48.90
2019-04-28T07:38:08.948Z,48.90
2019-04-28T07:40:41.463Z,49.10
2019-04-28T07:43:14.034Z,49.10
2019-04-28T07:45:46.484Z,49.00
2019-04-28T07:48:18.878Z,49.00
2019-04-28T07:50:51.327Z,49.40
2019-04-28T07:53:28.789Z,49.30
2019-04-28T07:56:01.246Z,49.00
2019-04-28T07:58:33.713Z,49.50
2019-04-28T08:01:07.891Z,49.40
2019-04-28T08:03:49.423Z,49.30
2019-04-28T08:06:14.459Z,48.80
2019-04-28T08:08:46.854Z,48.50
2019-04-28T08:11:19.843Z,49.00
2019-04-28T08:13:52.414Z,49.00
2019-04-28T08:16:24.909Z,48.80
2019-04-28T08:18:57.478Z,49.10
2019-04-28T08:21:30.005Z,48.70
2019-04-28T08:24:02.405Z,49.10
2019-04-28T08:26:36.378Z,49.90
2019-04-28T08:29:08.899Z,49.10
2019-04-28T08:31:54.423Z,48.90
2019-04-28T08:34:26.869Z,49.00
2019-04-28T08:36:59.301Z,49.10
2019-04-28T08:39:31.697Z,49.00
2019-04-28T08:42:04.113Z,48.20
2019-04-28T08:44:36.521Z,47.50
2019-04-28T08:47:08.936Z,48.00
2019-04-28T08:49:41.331Z,47.50
2019-04-28T08:52:13.830Z,48.40
2019-04-28T08:54:47.353Z,48.60
2019-04-28T08:57:19.771Z,48.00
2019-04-28T08:59:52.169Z,47.50
2019-04-28T09:02:24.861Z,47.90
2019-04-28T09:04:57.363Z,47.30
2019-04-28T09:07:29.859Z,47.10
2019-04-28T09:10:02.262Z,47.50
2019-04-28T09:12:34.754Z,47.20
2019-04-28T09:15:07.397Z,47.30
2019-04-28T09:17:39.859Z,47.50
2019-04-28T09:20:12.265Z,48.00
2019-04-28T09:22:44.689Z,48.30
2019-04-28T09:25:17.080Z,48.30
2019-04-28T09:27:49.510Z,49.00
2019-04-28T09:30:21.995Z,48.40
2019-04-28T09:32:54.424Z,48.50
2019-04-28T09:35:26.818Z,48.50
2019-04-28T09:37:59.243Z,48.40
2019-04-28T09:40:31.642Z,48.40
2019-04-28T09:43:32.247Z,48.40
2019-04-28T09:46:08.271Z,48.10
2019-04-28T09:48:40.694Z,48.10
2019-04-28T09:51:13.092Z,47.70
2019-04-28T09:53:45.520Z,47.70
2019-04-28T09:56:17.917Z,47.70
2019-04-28T09:58:50.367Z,48.10
2019-04-28T10:01:22.761Z,48.00
2019-04-28T10:03:55.187Z,48.00
2019-04-28T10:06:27.581Z,47.90
2019-04-28T10:08:59.975Z,47.90
2019-04-28T10:11:32.368Z,48.10
2019-04-28T10:14:04.859Z,48.30
2019-04-28T10:16:37.260Z,48.40
2019-04-28T10:19:09.766Z,48.50
2019-04-28T10:21:42.158Z,48.40
2019-04-28T10:24:14.586Z,48.60
2019-04-28T10:26:48.057Z,48.30
2019-04-28T10:29:20.779Z,48.40
2019-04-28T10:31:54.601Z,48.40
2019-04-28T10:34:27.034Z,48.40
2019-04-28T10:36:59.429Z,48.50
2019-04-28T10:39:41.160Z,48.90
2019-04-28T10:42:13.745Z,49.10
2019-04-28T10:44:47.819Z,49.10
2019-04-28T10:47:20.650Z,49.00
2019-04-28T10:49:53.080Z,49.00
2019-04-28T10:52:25.483Z,49.10
2019-04-28T10:54:57.899Z,49.40
2019-04-28T10:57:30.300Z,49.40
2019-04-28T11:00:03.094Z,49.60
2019-04-28T11:02:37.151Z,49.50
2019-04-28T11:05:21.080Z,49.70
2019-04-28T11:07:54.162Z,50.90
2019-04-28T11:10:26.585Z,49.60
2019-04-28T11:12:59.002Z,49.10
2019-04-28T11:15:34.703Z,49.50
2019-04-28T11:18:09.504Z,49.30
2019-04-28T11:20:41.941Z,50.40
2019-04-28T11:23:14.344Z,49.80
2019-04-28T11:25:46.829Z,48.80
2019-04-28T11:28:19.243Z,48.70
2019-04-28T11:30:51.693Z,48.50
2019-04-28T11:33:59.959Z,48.20
2019-04-28T11:36:32.779Z,48.80
2019-04-28T11:39:07.373Z,48.60
2019-04-28T11:41:41.397Z,48.00
2019-04-28T11:44:13.879Z,48.40
2019-04-28T11:46:46.385Z,48.70
2019-04-28T11:49:19.753Z,48.70
2019-04-28T11:51:52.171Z,48.60
2019-04-28T11:54:24.723Z,48.70
2019-04-28T11:56:57.143Z,48.50
2019-04-28T11:59:29.646Z,47.70
2019-04-28T12:02:02.141Z,47.60
2019-04-28T12:04:34.535Z,46.00
2019-04-28T12:07:06.955Z,45.50
2019-04-28T12:10:03.834Z,46.40
2019-04-28T12:12:52.785Z,46.80
2019-04-28T12:15:53.225Z,46.80
2019-04-28T12:18:52.761Z,47.50
2019-04-28T12:21:25.174Z,46.10
2019-04-28T12:23:57.572Z,46.50
2019-04-28T12:26:30.036Z,45.90
2019-04-28T12:29:02.436Z,45.80
2019-04-28T12:31:34.885Z,45.70
2019-04-28T12:34:07.294Z,45.70
2019-04-28T12:36:39.721Z,46.30
2019-04-28T12:39:12.148Z,46.10
2019-04-28T12:41:44.571Z,47.00
2019-04-28T12:44:16.970Z,46.60
2019-04-28T12:46:49.444Z,46.90
2019-04-28T12:49:27.321Z,46.10
2019-04-28T12:51:59.753Z,46.70
2019-04-28T12:54:34.012Z,47.20
2019-04-28T12:57:06.448Z,46.20
2019-04-28T12:59:44.600Z,46.90
2019-04-28T13:02:54.096Z,46.50
2019-04-28T13:05:26.569Z,46.60
2019-04-28T13:07:58.996Z,46.90
2019-04-28T13:10:31.406Z,46.70
2019-04-28T13:13:03.860Z,46.60
2019-04-28T13:15:36.252Z,46.00
2019-04-28T13:18:08.671Z,46.20
2019-04-28T13:20:41.072Z,46.50
2019-04-28T13:23:13.497Z,46.50
2019-04-28T13:25:45.982Z,46.00
2019-04-28T13:28:18.400Z,45.20
2019-04-28T13:30:50.829Z,46.30
2019-04-28T13:33:23.272Z,47.10
2019-04-28T13:35:55.687Z,46.50
2019-04-28T13:38:28.100Z,46.90
2019-04-28T13:41:00.493Z,46.60
2019-04-28T13:43:32.917Z,46.40
2019-04-28T13:46:05.421Z,46.10
2019-04-28T13:48:37.822Z,47.00
2019-04-28T13:51:10.256Z,47.30
2019-04-28T13:53:42.680Z,46.80
2019-04-28T13:56:15.089Z,46.80
2019-04-28T13:59:06.372Z,45.60
2019-04-28T14:01:57.684Z,45.00
2019-04-28T14:05:04.386Z,45.00
2019-04-28T14:07:36.822Z,44.80
2019-04-28T14:10:09.371Z,46.00
2019-04-28T14:12:41.804Z,46.40
2019-04-28T14:15:14.236Z,46.60
2019-04-28T14:17:47.117Z,45.60
2019-04-28T14:20:19.701Z,44.90
2019-04-28T14:22:53.032Z,45.70
2019-04-28T14:25:25.414Z,46.10
2019-04-28T14:27:57.904Z,45.00
2019-04-28T14:30:30.378Z,46.20
2019-04-28T14:33:02.834Z,46.30
2019-04-28T14:35:35.282Z,45.60
2019-04-28T14:38:08.039Z,45.00
2019-04-28T14:40:40.402Z,44.80
2019-04-28T14:43:12.932Z,44.20
2019-04-28T14:45:45.785Z,45.40
2019-04-28T14:48:18.211Z,45.80
2019-04-28T14:50:50.603Z,45.90
2019-04-28T14:53:23.040Z,46.30
2019-04-28T14:55:56.523Z,45.20
2019-04-28T14:58:28.960Z,44.40
2019-04-28T15:01:08.517Z,44.80
2019-04-28T15:03:43.792Z,45.20
2019-04-28T15:06:28.157Z,44.80
2019-04-28T15:09:15.545Z,45.20
2019-04-28T15:11:58.026Z,45.40
2019-04-28T15:14:30.550Z,45.80
2019-04-28T15:17:03.160Z,45.00
2019-04-28T15:19:35.615Z,44.00
2019-04-28T15:22:08.140Z,44.20
2019-04-28T15:24:40.490Z,44.00
2019-04-28T15:27:12.892Z,44.30
2019-04-28T15:29:45.373Z,44.50
2019-04-28T15:32:17.819Z,44.90
2019-04-28T15:34:50.318Z,45.00
2019-04-28T15:37:22.795Z,45.20
2019-04-28T15:39:55.226Z,45.20
2019-04-28T15:42:27.643Z,45.10
2019-04-28T15:45:00.101Z,44.50
2019-04-28T15:47:32.541Z,44.80
2019-04-28T15:50:05.052Z,44.50
2019-04-28T15:52:37.455Z,44.60
2019-04-28T15:55:11.994Z,44.40
2019-04-28T15:57:44.413Z,44.20
2019-04-28T16:00:16.943Z,45.30
2019-04-28T16:02:49.403Z,45.50
2019-04-28T16:05:21.897Z,45.80
2019-04-28T16:07:54.645Z,45.50
2019-04-28T16:10:27.067Z,45.90
2019-04-28T16:12:59.624Z,46.00
2019-04-28T16:15:32.073Z,46.00
2019-04-28T16:18:04.531Z,46.00
2019-04-28T16:20:36.960Z,46.30
2019-04-28T16:23:09.404Z,46.10
2019-04-28T16:25:41.849Z,45.90
2019-04-28T16:28:14.262Z,45.90
2019-04-28T16:30:46.723Z,45.90
2019-04-28T16:33:19.341Z,46.00
2019-04-28T16:35:51.787Z,45.90
2019-04-28T16:38:25.258Z,45.70
2019-04-28T16:40:57.675Z,45.60
2019-04-28T16:43:30.196Z,45.40
2019-04-28T16:46:02.636Z,45.60
2019-04-28T16:48:35.131Z,45.80
2019-04-28T16:51:07.544Z,45.50
2019-04-28T16:53:39.978Z,45.40
2019-04-28T16:56:25.831Z,45.40
2019-04-28T16:59:17.379Z,45.50
2019-04-28T17:02:07.826Z,45.30
2019-04-28T17:04:43.500Z,45.40
2019-04-28T17:07:16.232Z,45.50
2019-04-28T17:09:48.823Z,45.00
2019-04-28T17:12:21.336Z,45.10
2019-04-28T17:14:53.745Z,45.10
2019-04-28T17:17:26.164Z,45.20
2019-04-28T17:19:58.853Z,45.20
2019-04-28T17:22:31.276Z,45.30
2019-04-28T17:25:03.953Z,45.20
2019-04-28T17:27:36.369Z,45.20
2019-04-28T17:30:10.602Z,45.60
2019-04-28T17:32:43.392Z,45.70
2019-04-28T17:35:16.092Z,45.90
2019-04-28T17:37:48.606Z,45.90
2019-04-28T17:40:22.062Z,46.20
2019-04-28T17:42:56.169Z,46.20
2019-04-28T17:45:28.828Z,45.90
2019-04-28T17:48:07.875Z,45.70
2019-04-28T17:50:40.559Z,45.80
2019-04-28T17:53:17.290Z,46.00
2019-04-28T17:55:49.686Z,46.10
2019-04-28T17:58:22.124Z,46.20
2019-04-28T18:01:29.415Z,46.20
2019-04-28T18:04:19.716Z,45.90
2019-04-28T18:06:57.777Z,45.90
2019-04-28T18:09:30.731Z,46.20
2019-04-28T18:12:03.370Z,46.10
2019-04-28T18:14:39.717Z,46.00
2019-04-28T18:17:39.769Z,45.90
2019-04-28T18:20:12.596Z,45.90
2019-04-28T18:22:45.017Z,45.90
2019-04-28T18:25:17.589Z,46.10
2019-04-28T18:27:50.141Z,46.10
2019-04-28T18:30:24.493Z,46.30
2019-04-28T18:33:25.247Z,46.40
2019-04-28T18:36:04.299Z,46.50
2019-04-28T18:38:43.493Z,46.60
2019-04-28T18:41:33.629Z,46.60
2019-04-28T18:44:14.146Z,46.70
2019-04-28T18:46:46.567Z,46.80
2019-04-28T18:49:21.018Z,46.90
2019-04-28T18:51:53.108Z,47.10
2019-04-28T18:54:25.515Z,47.20
2019-04-28T18:56:57.927Z,47.20
2019-04-28T18:59:30.363Z,47.20
2019-04-28T19:02:27.578Z,47.20
2019-04-28T19:04:59.996Z,47.20
2019-04-28T19:07:49.807Z,47.30
2019-04-28T19:10:44.183Z,47.40
2019-04-28T19:13:20.622Z,47.20
2019-04-28T19:16:17.743Z,47.30
2019-04-28T19:18:51.456Z,47.30
2019-04-28T19:21:23.935Z,47.20
2019-04-28T19:23:56.355Z,47.40
2019-04-28T19:26:28.747Z,47.30
2019-04-28T19:29:01.349Z,47.40
2019-04-28T19:31:33.863Z,47.90
2019-04-28T19:34:06.296Z,47.30
2019-04-28T19:36:38.695Z,47.30
2019-04-28T19:39:11.195Z,47.40
2019-04-28T19:41:45.206Z,47.70
2019-04-28T19:44:17.603Z,47.70
2019-04-28T19:46:50.006Z,47.50
2019-04-28T19:49:22.502Z,47.50
2019-04-28T19:51:54.911Z,47.70
2019-04-28T19:54:31.190Z,47.40
2019-04-28T19:57:22.612Z,47.60
2019-04-28T20:00:12.802Z,47.40
2019-04-28T20:02:46.879Z,47.30
2019-04-28T20:05:19.372Z,47.30
2019-04-28T20:07:51.776Z,47.20
2019-04-28T20:10:24.242Z,47.30
2019-04-28T20:12:56.817Z,47.20
2019-04-28T20:15:29.237Z,47.20
2019-04-28T20:18:02.406Z,47.20
2019-04-28T20:20:34.945Z,47.20
2019-04-28T20:23:07.523Z,47.30
2019-04-28T20:25:40.015Z,47.30
2019-04-28T20:28:12.407Z,47.40
2019-04-28T20:30:46.903Z,47.40
2019-04-28T20:33:19.395Z,47.40
2019-04-28T20:35:56.475Z,47.40
2019-04-28T20:38:31.448Z,47.30
2019-04-28T20:41:09.005Z,47.40
2019-04-28T20:43:41.340Z,47.50
2019-04-28T20:46:13.837Z,47.50
2019-04-28T20:48:46.411Z,47.50
2019-04-28T20:51:18.857Z,47.50
2019-04-28T20:53:51.328Z,47.70
2019-04-28T20:56:23.859Z,47.70
2019-04-28T20:58:56.259Z,47.90
2019-04-28T21:01:28.682Z,47.90
2019-04-28T21:04:01.086Z,47.80
2019-04-28T21:06:33.511Z,47.90
2019-04-28T21:09:09.589Z,47.60
2019-04-28T21:11:42.489Z,47.70
2019-04-28T21:14:14.879Z,47.70
2019-04-28T21:16:47.299Z,47.90
2019-04-28T21:19:19.769Z,47.70
2019-04-28T21:21:52.192Z,47.70
2019-04-28T21:24:24.586Z,47.60
2019-04-28T21:26:57.046Z,47.60
2019-04-28T21:29:29.444Z,47.70
2019-04-28T21:32:01.875Z,47.60
2019-04-28T21:34:34.270Z,47.70
2019-04-28T21:37:06.699Z,47.80
2019-04-28T21:39:39.168Z,47.60
2019-04-28T21:42:15.073Z,47.60
2019-04-28T21:45:18.205Z,47.70
2019-04-28T21:47:50.831Z,47.60
2019-04-28T21:50:23.226Z,47.80
2019-04-28T21:52:55.651Z,48.10
2019-04-28T21:55:28.054Z,48.00
2019-04-28T21:58:00.483Z,48.20
2019-04-28T22:00:45.690Z,48.10
2019-04-28T22:03:26.607Z,48.10
2019-04-28T22:05:59.048Z,48.00
2019-04-28T22:08:31.536Z,48.10
2019-04-28T22:11:04.017Z,48.30
2019-04-28T22:13:36.455Z,48.30
2019-04-28T22:16:09.220Z,48.30
2019-04-28T22:18:41.632Z,48.40
2019-04-28T22:21:14.041Z,48.20
2019-04-28T22:23:56.121Z,48.10
2019-04-28T22:26:48.564Z,48.10
2019-04-28T22:29:22.246Z,48.10
2019-04-28T22:31:54.684Z,47.90
2019-04-28T22:34:27.082Z,47.80
2019-04-28T22:36:59.506Z,47.80
2019-04-28T22:39:31.911Z,48.30
2019-04-28T22:42:04.343Z,47.70
2019-04-28T22:44:36.734Z,47.90
2019-04-28T22:47:09.157Z,48.00
2019-04-28T22:49:41.553Z,47.90
2019-04-28T22:52:13.971Z,47.90
2019-04-28T22:55:08.515Z,47.90
2019-04-28T22:57:51.047Z,47.90
2019-04-28T23:00:41.265Z,48.00
2019-04-28T23:03:19.845Z,47.90
2019-04-28T23:05:52.242Z,47.90
2019-04-28T23:08:24.670Z,48.00
2019-04-28T23:10:57.095Z,48.10
2019-04-28T23:13:29.515Z,48.20
2019-04-28T23:16:01.912Z,48.20
2019-04-28T23:18:34.512Z,48.10
2019-04-28T23:21:14.832Z,48.10
2019-04-28T23:23:47.267Z,47.80
2019-04-28T23:26:19.660Z,47.70
2019-04-28T23:28:52.085Z,47.50
2019-04-28T23:31:24.506Z,47.50
2019-04-28T23:33:56.926Z,47.50
2019-04-28T23:36:29.319Z,47.50
2019-04-28T23:39:01.740Z,47.60
2019-04-28T23:41:43.989Z,47.30
2019-04-28T23:44:16.412Z,47.40
2019-04-28T23:46:56.336Z,47.50
2019-04-28T23:49:29.512Z,47.60
2019-04-28T23:52:24.052Z,47.70
2019-04-28T23:54:58.604Z,47.80
2019-04-28T23:57:30.999Z,47.80
